createdAt,value
2018-02-19T00:00:29.847Z,4.06
2018-02-19T00:01:35.767Z,4.05
2018-02-19T00:02:41.731Z,4.05
2018-02-19T00:03:47.678Z,4.05
2018-02-19T00:04:53.572Z,4.05
2018-02-19T00:05:59.487Z,4.05
2018-02-19T00:07:04.922Z,4.06
2018-02-19T00:08:11.358Z,4.06
2018-02-19T00:09:17.291Z,4.05
2018-02-19T00:10:23.182Z,4.05
2018-02-19T00:11:29.088Z,4.05
2018-02-19T00:12:35.044Z,4.05
2018-02-19T00:13:41.004Z,4.05
2018-02-19T00:14:46.899Z,4.06
2018-02-19T00:15:52.773Z,4.05
2018-02-19T00:16:58.758Z,4.05
2018-02-19T00:18:04.187Z,4.05
2018-02-19T00:19:10.567Z,4.05
2018-02-19T00:20:16.482Z,4.05
2018-02-19T00:21:22.458Z,4.05
2018-02-19T00:22:28.362Z,4.05
2018-02-19T00:23:34.280Z,4.05
2018-02-19T00:24:40.196Z,4.05
2018-02-19T00:25:46.168Z,4.05
2018-02-19T00:26:52.061Z,4.05
2018-02-19T00:27:57.955Z,4.05
2018-02-19T00:29:03.882Z,4.05
2018-02-19T00:30:09.759Z,4.05
2018-02-19T00:31:15.696Z,4.05
2018-02-19T00:32:21.676Z,4.05
2018-02-19T00:33:27.533Z,4.05
2018-02-19T00:34:33.413Z,4.05
2018-02-19T00:35:40.337Z,4.05
2018-02-19T00:36:45.308Z,4.05
2018-02-19T00:37:51.213Z,4.05
2018-02-19T00:38:57.084Z,4.05
2018-02-19T00:40:03.072Z,4.06
2018-02-19T00:41:08.924Z,4.05
2018-02-19T00:42:14.904Z,4.05
2018-02-19T00:43:20.741Z,4.05
2018-02-19T00:44:26.668Z,4.05
2018-02-19T00:45:32.598Z,4.05
2018-02-19T00:46:38.505Z,4.05
2018-02-19T00:47:44.420Z,4.05
2018-02-19T00:48:50.368Z,4.05
2018-02-19T00:49:56.253Z,4.05
2018-02-19T00:51:02.179Z,4.05
2018-02-19T00:52:09.085Z,4.05
2018-02-19T00:53:13.999Z,4.05
2018-02-19T00:54:19.892Z,4.05
2018-02-19T00:55:25.790Z,4.05
2018-02-19T00:56:32.716Z,4.05
2018-02-19T00:57:37.665Z,4.05
2018-02-19T00:58:43.553Z,4.05
2018-02-19T00:59:49.482Z,4.05
2018-02-19T01:00:55.384Z,4.05
2018-02-19T01:02:01.311Z,4.05
2018-02-19T01:03:07.220Z,4.05
2018-02-19T01:04:13.143Z,4.05
2018-02-19T01:05:19.090Z,4.05
2018-02-19T01:06:25.960Z,4.05
2018-02-19T01:07:30.974Z,4.05
2018-02-19T01:08:36.838Z,4.05
2018-02-19T01:09:42.749Z,4.05
2018-02-19T01:10:48.693Z,4.05
2018-02-19T01:11:54.564Z,4.05
2018-02-19T01:13:00.558Z,4.05
2018-02-19T01:14:06.434Z,4.05
2018-02-19T01:15:12.356Z,4.05
2018-02-19T01:17:24.321Z,4.05
2018-02-19T01:18:29.671Z,4.05
2018-02-19T01:19:36.212Z,4.05
2018-02-19T01:20:42.001Z,4.05
2018-02-19T01:21:47.939Z,4.05
2018-02-19T01:22:53.901Z,4.05
2018-02-19T01:23:59.790Z,4.05
2018-02-19T01:25:05.742Z,4.05
2018-02-19T01:26:11.763Z,4.05
2018-02-19T01:27:17.669Z,4.05
2018-02-19T01:28:23.543Z,4.05
2018-02-19T01:29:29.472Z,4.05
2018-02-19T01:30:35.406Z,4.05
2018-02-19T01:31:41.332Z,4.05
2018-02-19T01:32:47.313Z,4.05
2018-02-19T01:33:53.230Z,4.05
2018-02-19T01:34:59.192Z,4.05
2018-02-19T01:36:05.158Z,4.05
2018-02-19T01:37:11.119Z,4.05
2018-02-19T01:38:16.996Z,4.05
2018-02-19T01:39:22.916Z,4.05
2018-02-19T01:40:28.839Z,4.05
2018-02-19T01:41:34.808Z,4.05
2018-02-19T01:42:40.714Z,4.05
2018-02-19T01:43:46.676Z,4.05
2018-02-19T01:44:52.580Z,4.05
2018-02-19T01:45:59.589Z,4.05
2018-02-19T01:47:04.471Z,4.05
2018-02-19T01:48:10.413Z,4.05
2018-02-19T01:49:16.366Z,4.05
2018-02-19T01:50:22.283Z,4.05
2018-02-19T01:51:28.222Z,4.05
2018-02-19T01:52:34.253Z,4.05
2018-02-19T01:53:40.078Z,4.05
2018-02-19T01:54:46.025Z,4.05
2018-02-19T01:55:51.908Z,4.05
2018-02-19T01:56:57.837Z,4.05
2018-02-19T01:58:03.768Z,4.05
2018-02-19T01:59:09.668Z,4.05
2018-02-19T02:00:15.654Z,4.05
2018-02-19T02:01:21.539Z,4.05
2018-02-19T02:02:27.478Z,4.05
2018-02-19T02:03:33.403Z,4.05
2018-02-19T02:04:39.279Z,4.05
2018-02-19T02:05:45.257Z,4.05
2018-02-19T02:06:51.096Z,4.05
2018-02-19T02:07:57.031Z,4.05
2018-02-19T02:09:02.975Z,4.05
2018-02-19T02:10:08.882Z,4.05
2018-02-19T02:11:14.780Z,4.05
2018-02-19T02:12:20.697Z,4.05
2018-02-19T02:13:26.638Z,4.05
2018-02-19T02:14:32.516Z,4.05
2018-02-19T02:15:38.481Z,4.05
2018-02-19T02:16:44.341Z,4.05
2018-02-19T02:17:50.305Z,4.05
2018-02-19T02:18:56.221Z,4.05
2018-02-19T02:20:02.185Z,4.05
2018-02-19T02:21:08.078Z,4.05
2018-02-19T02:22:13.999Z,4.05
2018-02-19T02:23:19.878Z,4.05
2018-02-19T02:24:25.779Z,4.05
2018-02-19T02:25:31.700Z,4.05
2018-02-19T02:26:37.585Z,4.05
2018-02-19T02:27:43.538Z,4.05
2018-02-19T02:28:49.429Z,4.05
2018-02-19T02:29:56.366Z,4.05
2018-02-19T02:31:01.219Z,4.05
2018-02-19T02:32:07.134Z,4.05
2018-02-19T02:33:13.075Z,4.05
2018-02-19T02:34:19.971Z,4.05
2018-02-19T02:35:24.851Z,4.05
2018-02-19T02:36:30.838Z,4.05
2018-02-19T02:37:36.683Z,4.05
2018-02-19T02:38:42.638Z,4.05
2018-02-19T02:39:48.530Z,4.05
2018-02-19T02:40:54.478Z,4.05
2018-02-19T02:42:00.350Z,4.05
2018-02-19T02:43:06.243Z,4.05
2018-02-19T02:44:12.183Z,4.05
2018-02-19T02:45:18.057Z,4.05
2018-02-19T02:46:24.025Z,4.05
2018-02-19T02:47:29.861Z,4.05
2018-02-19T02:48:35.825Z,4.05
2018-02-19T02:49:41.740Z,4.05
2018-02-19T02:50:47.617Z,4.05
2018-02-19T02:51:53.565Z,4.05
2018-02-19T02:52:59.491Z,4.05
2018-02-19T02:54:05.375Z,4.05
2018-02-19T02:55:11.277Z,4.05
2018-02-19T02:56:18.209Z,4.05
2018-02-19T02:57:23.086Z,4.05
2018-02-19T02:58:30.051Z,4.05
2018-02-19T02:59:34.893Z,4.05
2018-02-19T03:00:40.803Z,4.05
2018-02-19T03:01:46.752Z,4.05
2018-02-19T03:02:53.064Z,4.05
2018-02-19T03:03:58.582Z,4.05
2018-02-19T03:05:04.409Z,4.05
2018-02-19T03:06:10.336Z,4.05
2018-02-19T03:08:22.288Z,4.05
2018-02-19T03:09:27.569Z,4.05
2018-02-19T03:10:33.972Z,4.05
2018-02-19T03:11:39.966Z,4.05
2018-02-19T03:12:45.821Z,4.05
2018-02-19T03:13:51.716Z,4.05
2018-02-19T03:14:57.619Z,4.05
2018-02-19T03:16:03.513Z,4.05
2018-02-19T03:17:09.416Z,4.05
2018-02-19T03:18:15.373Z,4.05
2018-02-19T03:19:21.279Z,4.05
2018-02-19T03:20:27.178Z,4.05
2018-02-19T03:21:33.126Z,4.05
2018-02-19T03:22:39.039Z,4.05
2018-02-19T03:23:45.031Z,4.05
2018-02-19T03:24:50.844Z,4.05
2018-02-19T03:25:56.787Z,4.05
2018-02-19T03:27:02.690Z,4.05
2018-02-19T03:28:08.582Z,4.05
2018-02-19T03:29:14.524Z,4.05
2018-02-19T03:30:20.403Z,4.05
2018-02-19T03:31:26.349Z,4.05
2018-02-19T03:32:32.284Z,4.05
2018-02-19T03:33:38.201Z,4.05
2018-02-19T03:34:44.103Z,4.05
2018-02-19T03:35:50.052Z,4.05
2018-02-19T03:36:55.902Z,4.05
2018-02-19T03:38:01.864Z,4.05
2018-02-19T03:39:07.773Z,4.05
2018-02-19T03:40:13.773Z,4.04
2018-02-19T03:41:19.598Z,4.04
2018-02-19T03:42:25.543Z,4.05
2018-02-19T03:43:31.500Z,4.05
2018-02-19T03:44:37.334Z,4.05
2018-02-19T03:45:43.329Z,4.05
2018-02-19T03:46:49.189Z,4.05
2018-02-19T03:47:55.080Z,4.05
2018-02-19T03:49:01.022Z,4.05
2018-02-19T03:50:06.932Z,4.05
2018-02-19T03:51:12.875Z,4.05
2018-02-19T03:52:18.811Z,4.04
2018-02-19T03:53:24.802Z,4.05
2018-02-19T03:54:30.658Z,4.05
2018-02-19T03:55:36.565Z,4.05
2018-02-19T03:56:42.487Z,4.05
2018-02-19T03:57:48.444Z,4.04
2018-02-19T03:58:54.454Z,4.05
2018-02-19T04:00:00.240Z,4.04
2018-02-19T04:01:06.215Z,4.04
2018-02-19T04:02:12.209Z,4.04
2018-02-19T04:03:18.096Z,4.05
2018-02-19T04:04:23.982Z,4.04
2018-02-19T04:05:29.907Z,4.04
2018-02-19T04:06:35.820Z,4.05
2018-02-19T04:07:41.831Z,4.04
2018-02-19T04:08:47.755Z,4.05
2018-02-19T04:09:53.681Z,4.05
2018-02-19T04:10:59.567Z,4.04
2018-02-19T04:12:05.468Z,4.04
2018-02-19T04:13:11.471Z,4.05
2018-02-19T04:14:17.381Z,4.05
2018-02-19T04:15:23.348Z,4.05
2018-02-19T04:16:29.228Z,4.05
2018-02-19T04:17:35.205Z,4.04
2018-02-19T04:18:41.098Z,4.04
2018-02-19T04:19:47.053Z,4.04
2018-02-19T04:20:52.943Z,4.04
2018-02-19T04:23:04.810Z,4.04
2018-02-19T04:24:11.824Z,4.05
2018-02-19T04:25:16.702Z,4.04
2018-02-19T04:26:22.680Z,4.04
2018-02-19T04:27:28.612Z,4.05
2018-02-19T04:28:34.483Z,4.04
2018-02-19T04:29:40.431Z,4.04
2018-02-19T04:30:46.412Z,4.04
2018-02-19T04:31:52.387Z,4.04
2018-02-19T04:32:58.340Z,4.04
2018-02-19T04:34:04.265Z,4.04
2018-02-19T04:35:10.200Z,4.04
2018-02-19T04:36:16.055Z,4.04
2018-02-19T04:37:22.076Z,4.04
2018-02-19T04:38:28.036Z,4.04
2018-02-19T04:39:33.902Z,4.04
2018-02-19T04:40:39.841Z,4.04
2018-02-19T04:41:45.749Z,4.04
2018-02-19T04:42:51.802Z,4.04
2018-02-19T04:43:57.711Z,4.04
2018-02-19T04:45:03.625Z,4.04
2018-02-19T04:46:09.578Z,4.04
2018-02-19T04:47:16.462Z,4.04
2018-02-19T04:48:21.517Z,4.04
2018-02-19T04:49:27.362Z,4.04
2018-02-19T04:50:33.317Z,4.04
2018-02-19T04:51:39.290Z,4.04
2018-02-19T04:52:45.215Z,4.04
2018-02-19T04:53:51.174Z,4.04
2018-02-19T04:54:57.103Z,4.04
2018-02-19T04:56:02.553Z,4.04
2018-02-19T04:57:08.993Z,4.04
2018-02-19T04:58:14.856Z,4.04
2018-02-19T04:59:20.892Z,4.04
2018-02-19T05:00:26.780Z,4.04
2018-02-19T05:01:32.683Z,4.04
2018-02-19T05:02:38.654Z,4.04
2018-02-19T05:03:44.650Z,4.04
2018-02-19T05:04:50.550Z,4.04
2018-02-19T05:05:56.491Z,4.04
2018-02-19T05:07:02.396Z,4.04
2018-02-19T05:08:08.395Z,4.04
2018-02-19T05:09:14.333Z,4.04
2018-02-19T05:10:20.331Z,4.04
2018-02-19T05:11:26.199Z,4.04
2018-02-19T05:12:32.290Z,4.04
2018-02-19T05:13:38.256Z,4.04
2018-02-19T05:14:44.190Z,4.04
2018-02-19T05:15:50.010Z,4.04
2018-02-19T05:16:55.921Z,4.04
2018-02-19T05:18:01.920Z,4.04
2018-02-19T05:19:07.872Z,4.04
2018-02-19T05:20:13.756Z,4.04
2018-02-19T05:21:19.753Z,4.04
2018-02-19T05:22:25.666Z,4.04
2018-02-19T05:23:31.653Z,4.04
2018-02-19T05:24:37.601Z,4.04
2018-02-19T05:25:43.498Z,4.04
2018-02-19T05:26:49.450Z,4.04
2018-02-19T05:27:56.402Z,4.04
2018-02-19T05:29:01.467Z,4.04
2018-02-19T05:30:07.378Z,4.04
2018-02-19T05:31:13.298Z,4.04
2018-02-19T05:32:19.224Z,4.04
2018-02-19T05:33:25.165Z,4.04
2018-02-19T05:34:31.142Z,4.04
2018-02-19T05:36:42.997Z,4.04
2018-02-19T05:37:48.497Z,4.04
2018-02-19T05:38:54.902Z,4.04
2018-02-19T05:41:06.886Z,4.04
2018-02-19T05:42:12.730Z,4.04
2018-02-19T05:43:18.763Z,4.04
2018-02-19T05:44:24.726Z,4.04
2018-02-19T05:45:30.758Z,4.04
2018-02-19T05:47:42.462Z,4.04
2018-02-19T05:48:47.905Z,4.04
2018-02-19T05:49:54.342Z,4.04
2018-02-19T05:51:00.310Z,4.04
2018-02-19T05:52:06.318Z,4.04
2018-02-19T05:54:18.215Z,4.04
2018-02-19T05:56:30.097Z,4.04
2018-02-19T05:57:36.298Z,4.04
2018-02-19T05:58:41.957Z,4.04
2018-02-19T05:59:47.968Z,4.04
2018-02-19T06:00:53.794Z,4.04
2018-02-19T06:01:59.765Z,4.04
2018-02-19T06:03:05.675Z,4.04
2018-02-19T06:04:11.644Z,4.04
2018-02-19T06:05:17.549Z,4.04
2018-02-19T06:06:23.505Z,4.04
2018-02-19T06:07:29.396Z,4.04
2018-02-19T06:08:35.355Z,4.04
2018-02-19T06:11:52.740Z,4.04
2018-02-19T06:12:58.669Z,4.04
2018-02-19T06:14:05.148Z,4.04
2018-02-19T06:15:11.022Z,4.04
2018-02-19T06:16:16.884Z,4.04
2018-02-19T06:20:40.318Z,4.04
2018-02-19T06:21:46.521Z,4.04
2018-02-19T06:23:58.454Z,4.04
2018-02-19T06:27:15.691Z,4.04
2018-02-19T06:28:21.643Z,4.04
2018-02-19T06:29:28.033Z,4.04
2018-02-19T06:30:34.016Z,4.04
2018-02-19T06:31:39.899Z,4.04
2018-02-19T06:32:45.830Z,4.04
2018-02-19T06:33:51.805Z,4.04
2018-02-19T06:34:57.640Z,4.04
2018-02-19T06:36:03.642Z,4.04
2018-02-19T06:38:15.454Z,4.04
2018-02-19T06:39:20.831Z,4.04
2018-02-19T06:40:28.266Z,4.04
2018-02-19T06:41:33.207Z,4.04
2018-02-19T06:43:45.096Z,4.04
2018-02-19T06:44:51.075Z,4.04
2018-02-19T06:45:57.323Z,4.04
2018-02-19T06:47:03.288Z,4.04
2018-02-19T06:48:11.604Z,4.04
2018-02-19T06:49:14.738Z,4.04
2018-02-19T06:50:20.699Z,4.04
2018-02-19T06:53:37.918Z,4.04
2018-02-19T06:54:46.284Z,4.04
2018-02-19T06:56:58.168Z,4.05
2018-02-19T06:58:01.721Z,4.05
2018-02-19T06:59:08.233Z,4.05
2018-02-19T07:00:14.230Z,4.05
2018-02-19T07:03:31.844Z,4.05
2018-02-19T07:04:37.876Z,4.05
2018-02-19T07:05:43.695Z,4.05
2018-02-19T07:06:49.159Z,4.05
2018-02-19T07:07:55.663Z,4.05
2018-02-19T07:10:07.542Z,4.05
2018-02-19T07:11:13.091Z,4.05
2018-02-19T07:13:25.381Z,4.05
2018-02-19T07:14:31.287Z,4.05
2018-02-19T07:15:37.338Z,4.05
2018-02-19T07:16:44.252Z,4.05
2018-02-19T07:17:49.153Z,4.05
2018-02-19T07:18:55.091Z,4.05
2018-02-19T07:20:01.004Z,4.05
2018-02-19T07:21:06.970Z,4.05
2018-02-19T07:23:19.103Z,4.05
2018-02-19T07:24:25.352Z,4.05
2018-02-19T07:25:30.760Z,4.05
2018-02-19T07:26:36.753Z,4.05
2018-02-19T07:27:42.668Z,4.05
2018-02-19T07:31:00.896Z,4.05
2018-02-19T07:33:20.717Z,4.05
2018-02-19T07:34:26.677Z,4.05
2018-02-19T07:36:38.707Z,4.05
2018-02-19T07:37:44.235Z,4.06
2018-02-19T07:38:50.494Z,4.06
2018-02-19T07:39:56.375Z,4.06
2018-02-19T07:42:08.376Z,4.05
2018-02-19T07:43:14.265Z,4.05
2018-02-19T07:44:20.312Z,4.05
2018-02-19T07:45:26.279Z,4.06
2018-02-19T07:46:32.216Z,4.06
2018-02-19T07:47:38.058Z,4.06
2018-02-19T07:48:44.049Z,4.06
2018-02-19T07:49:50.026Z,4.06
2018-02-19T07:50:57.001Z,4.06
2018-02-19T07:52:01.922Z,4.06
2018-02-19T07:53:07.960Z,4.06
2018-02-19T07:54:13.907Z,4.06
2018-02-19T07:55:19.843Z,4.06
2018-02-19T07:56:25.826Z,4.06
2018-02-19T07:57:31.790Z,4.06
2018-02-19T07:58:37.744Z,4.06
2018-02-19T07:59:43.728Z,4.06
2018-02-19T08:00:50.672Z,4.06
2018-02-19T08:01:55.663Z,4.06
2018-02-19T08:03:01.605Z,4.07
2018-02-19T08:04:07.704Z,4.06
2018-02-19T08:05:13.598Z,4.06
2018-02-19T08:06:19.559Z,4.07
2018-02-19T08:07:25.557Z,4.07
2018-02-19T08:08:31.534Z,4.07
2018-02-19T08:09:37.566Z,4.07
2018-02-19T08:10:43.546Z,4.08
2018-02-19T08:11:49.509Z,4.07
2018-02-19T08:12:56.517Z,4.07
2018-02-19T08:14:01.498Z,4.07
2018-02-19T08:15:07.826Z,4.08
2018-02-19T08:16:13.485Z,4.08
2018-02-19T08:17:19.503Z,4.08
2018-02-19T08:18:25.451Z,4.08
2018-02-19T08:19:31.534Z,4.08
2018-02-19T08:20:37.500Z,4.08
2018-02-19T08:21:43.443Z,4.08
2018-02-19T08:22:49.507Z,4.08
2018-02-19T08:23:55.551Z,4.08
2018-02-19T08:25:01.509Z,4.08
2018-02-19T08:26:07.517Z,4.08
2018-02-19T08:27:13.525Z,4.08
2018-02-19T08:28:19.530Z,4.08
2018-02-19T08:29:25.533Z,4.08
2018-02-19T08:30:31.528Z,4.08
2018-02-19T08:31:37.516Z,4.08
2018-02-19T08:32:43.575Z,4.08
2018-02-19T08:33:49.537Z,4.08
2018-02-19T08:34:55.595Z,4.08
2018-02-19T08:36:01.582Z,4.08
2018-02-19T08:37:07.618Z,4.08
2018-02-19T08:38:13.611Z,4.08
2018-02-19T08:39:19.645Z,4.08
2018-02-19T08:40:26.631Z,4.08
2018-02-19T08:41:31.683Z,4.08
2018-02-19T08:42:37.675Z,4.08
2018-02-19T08:43:43.704Z,4.08
2018-02-19T08:44:49.771Z,4.08
2018-02-19T08:45:55.731Z,4.08
2018-02-19T08:47:01.745Z,4.08
2018-02-19T08:48:07.773Z,4.08
2018-02-19T08:49:13.822Z,4.09
2018-02-19T08:50:19.825Z,4.09
2018-02-19T08:51:25.854Z,4.09
2018-02-19T08:52:31.878Z,4.09
2018-02-19T08:53:37.946Z,4.09
2018-02-19T08:54:43.970Z,4.09
2018-02-19T08:55:50.017Z,4.09
2018-02-19T08:56:56.028Z,4.09
2018-02-19T08:58:02.165Z,4.09
2018-02-19T08:59:08.190Z,4.09
2018-02-19T09:00:14.648Z,4.09
2018-02-19T09:01:20.196Z,4.09
2018-02-19T09:02:26.241Z,4.10
2018-02-19T09:03:32.362Z,4.11
2018-02-19T09:04:38.309Z,4.10
2018-02-19T09:05:44.354Z,4.11
2018-02-19T09:06:50.369Z,4.11
2018-02-19T09:07:56.440Z,4.11
2018-02-19T09:09:02.476Z,4.11
2018-02-19T09:10:08.531Z,4.11
2018-02-19T09:11:14.536Z,4.11
2018-02-19T09:12:20.624Z,4.12
2018-02-19T09:13:26.633Z,4.12
2018-02-19T09:14:32.715Z,4.12
2018-02-19T09:15:38.724Z,4.12
2018-02-19T09:16:44.764Z,4.11
2018-02-19T09:17:50.834Z,4.10
2018-02-19T09:18:58.133Z,4.11
2018-02-19T09:20:02.930Z,4.12
2018-02-19T09:21:08.930Z,4.12
2018-02-19T09:22:14.481Z,4.11
2018-02-19T09:23:21.004Z,4.12
2018-02-19T09:24:27.091Z,4.12
2018-02-19T09:25:33.167Z,4.12
2018-02-19T09:26:39.175Z,4.13
2018-02-19T09:27:45.166Z,4.10
2018-02-19T09:28:51.219Z,4.10
2018-02-19T09:29:57.285Z,4.10
2018-02-19T09:31:03.337Z,4.10
2018-02-19T09:32:09.366Z,4.10
2018-02-19T09:33:15.433Z,4.10
2018-02-19T09:34:21.508Z,4.10
2018-02-19T09:35:27.548Z,4.10
2018-02-19T09:36:33.631Z,4.10
2018-02-19T09:37:39.675Z,4.10
2018-02-19T09:38:46.755Z,4.10
2018-02-19T09:39:51.866Z,4.10
2018-02-19T09:40:57.928Z,4.10
2018-02-19T09:42:04.025Z,4.10
2018-02-19T09:43:10.099Z,4.10
2018-02-19T09:44:15.702Z,4.10
2018-02-19T09:45:22.312Z,4.10
2018-02-19T09:46:28.406Z,4.10
2018-02-19T09:47:35.483Z,4.10
2018-02-19T09:48:40.630Z,4.10
2018-02-19T09:49:46.731Z,4.10
2018-02-19T09:50:52.805Z,4.10
2018-02-19T09:51:58.918Z,4.10
2018-02-19T09:53:05.032Z,4.10
2018-02-19T09:54:11.157Z,4.10
2018-02-19T09:55:17.299Z,4.10
2018-02-19T09:56:22.874Z,4.10
2018-02-19T09:57:29.462Z,4.10
2018-02-19T09:58:35.612Z,4.10
2018-02-19T09:59:41.697Z,4.10
2018-02-19T10:00:47.817Z,4.10
2018-02-19T10:01:53.905Z,4.10
2018-02-19T10:03:00.021Z,4.10
2018-02-19T10:04:06.156Z,4.10
2018-02-19T10:05:12.295Z,4.10
2018-02-19T10:06:18.410Z,4.10
2018-02-19T10:07:24.518Z,4.10
2018-02-19T10:08:30.651Z,4.10
2018-02-19T10:09:36.827Z,4.10
2018-02-19T10:10:42.929Z,4.10
2018-02-19T10:11:49.176Z,4.10
2018-02-19T10:12:55.206Z,4.10
2018-02-19T10:14:00.868Z,4.10
2018-02-19T10:15:07.551Z,4.10
2018-02-19T10:16:13.636Z,4.10
2018-02-19T10:17:19.787Z,4.10
2018-02-19T10:18:26.447Z,4.10
2018-02-19T10:19:32.113Z,4.10
2018-02-19T10:20:38.239Z,4.10
2018-02-19T10:21:44.380Z,4.10
2018-02-19T10:22:50.545Z,4.10
2018-02-19T10:23:56.718Z,4.10
2018-02-19T10:25:02.835Z,4.10
2018-02-19T10:26:08.964Z,4.10
2018-02-19T10:27:15.182Z,4.10
2018-02-19T10:28:21.232Z,4.10
2018-02-19T10:29:26.908Z,4.10
2018-02-19T10:30:33.041Z,4.10
2018-02-19T10:31:39.642Z,4.10
2018-02-19T10:32:45.797Z,4.10
2018-02-19T10:33:51.911Z,4.10
2018-02-19T10:34:58.071Z,4.10
2018-02-19T10:36:04.228Z,4.10
2018-02-19T10:37:10.338Z,4.10
2018-02-19T10:38:16.484Z,4.10
2018-02-19T10:39:22.602Z,4.10
2018-02-19T10:40:28.768Z,4.10
2018-02-19T10:41:34.892Z,4.10
2018-02-19T10:42:41.028Z,4.10
2018-02-19T10:43:47.182Z,4.10
2018-02-19T10:44:53.350Z,4.10
2018-02-19T10:45:59.480Z,4.10
2018-02-19T10:47:05.643Z,4.10
2018-02-19T10:48:11.794Z,4.10
2018-02-19T10:49:17.944Z,4.10
2018-02-19T10:50:24.133Z,4.10
2018-02-19T10:51:29.783Z,4.10
2018-02-19T10:52:35.940Z,4.10
2018-02-19T10:53:42.612Z,4.10
2018-02-19T10:54:48.303Z,4.10
2018-02-19T10:55:54.947Z,4.10
2018-02-19T10:57:00.645Z,4.10
2018-02-19T10:58:06.821Z,4.10
2018-02-19T10:59:13.501Z,4.10
2018-02-19T11:00:19.710Z,4.10
2018-02-19T11:01:25.876Z,4.10
2018-02-19T11:02:32.054Z,4.10
2018-02-19T11:03:38.241Z,4.10
2018-02-19T11:04:43.958Z,4.10
2018-02-19T11:05:50.611Z,4.10
2018-02-19T11:06:56.825Z,4.10
2018-02-19T11:08:02.541Z,4.10
2018-02-19T11:09:09.504Z,4.10
2018-02-19T11:10:14.979Z,4.10
2018-02-19T11:11:21.089Z,4.10
2018-02-19T11:12:27.288Z,4.10
2018-02-19T11:13:33.969Z,4.10
2018-02-19T11:14:40.180Z,4.10
2018-02-19T11:15:46.362Z,4.10
2018-02-19T11:16:52.053Z,4.10
2018-02-19T11:17:59.732Z,4.10
2018-02-19T11:19:04.454Z,4.10
2018-02-19T11:20:10.663Z,4.10
2018-02-19T11:21:17.338Z,4.10
2018-02-19T11:22:23.729Z,4.10
2018-02-19T11:23:29.705Z,4.10
2018-02-19T11:24:35.402Z,4.10
2018-02-19T11:25:41.620Z,4.10
2018-02-19T11:26:47.790Z,4.10
2018-02-19T11:27:54.483Z,4.10
2018-02-19T11:29:00.683Z,4.10
2018-02-19T11:30:06.904Z,4.10
2018-02-19T11:31:13.162Z,4.10
2018-02-19T11:32:19.294Z,4.10
2018-02-19T11:33:25.842Z,4.10
2018-02-19T11:34:31.260Z,4.10
2018-02-19T11:35:38.007Z,4.10
2018-02-19T11:36:44.205Z,4.10
2018-02-19T11:37:50.441Z,4.10
2018-02-19T11:38:56.681Z,4.10
2018-02-19T11:40:02.959Z,4.10
2018-02-19T11:41:09.185Z,4.10
2018-02-19T11:42:15.127Z,4.10
2018-02-19T11:43:21.687Z,4.10
2018-02-19T11:44:27.947Z,4.10
2018-02-19T11:45:34.257Z,4.10
2018-02-19T11:46:40.517Z,4.10
2018-02-19T11:47:46.784Z,4.10
2018-02-19T11:48:53.155Z,4.10
2018-02-19T11:49:59.382Z,4.10
2018-02-19T11:51:05.163Z,4.10
2018-02-19T11:52:11.946Z,4.10
2018-02-19T11:53:18.285Z,4.10
2018-02-19T11:54:24.567Z,4.10
2018-02-19T11:55:31.191Z,4.10
2018-02-19T11:56:37.169Z,4.10
2018-02-19T11:57:43.488Z,4.10
2018-02-19T11:58:49.307Z,4.10
2018-02-19T11:59:56.184Z,4.10
2018-02-19T12:01:02.463Z,4.10
2018-02-19T12:02:08.744Z,4.10
2018-02-19T12:03:15.072Z,4.10
2018-02-19T12:04:21.378Z,4.10
2018-02-19T12:05:27.705Z,4.10
2018-02-19T12:06:34.007Z,4.10
2018-02-19T12:07:40.327Z,4.10
2018-02-19T12:08:46.678Z,4.10
2018-02-19T12:09:52.986Z,4.10
2018-02-19T12:10:59.288Z,4.10
2018-02-19T12:12:05.611Z,4.10
2018-02-19T12:13:11.946Z,4.10
2018-02-19T12:14:18.278Z,4.10
2018-02-19T12:15:24.608Z,4.10
2018-02-19T12:16:30.912Z,4.10
2018-02-19T12:17:37.256Z,4.10
2018-02-19T12:18:43.550Z,4.10
2018-02-19T12:19:49.875Z,4.10
2018-02-19T12:20:56.231Z,4.10
2018-02-19T12:22:02.535Z,4.10
2018-02-19T12:23:08.889Z,4.10
2018-02-19T12:24:15.218Z,4.10
2018-02-19T12:25:21.688Z,4.10
2018-02-19T12:26:27.908Z,4.10
2018-02-19T12:27:34.259Z,4.10
2018-02-19T12:28:40.607Z,4.10
2018-02-19T12:29:46.898Z,4.10
2018-02-19T12:30:53.259Z,4.10
2018-02-19T12:31:59.588Z,4.10
2018-02-19T12:33:05.929Z,4.10
2018-02-19T12:34:12.315Z,4.10
2018-02-19T12:35:18.674Z,4.10
2018-02-19T12:36:25.032Z,4.10
2018-02-19T12:37:31.366Z,4.10
2018-02-19T12:38:37.716Z,4.10
2018-02-19T12:39:44.073Z,4.10
2018-02-19T12:40:50.449Z,4.10
2018-02-19T12:41:56.820Z,4.10
2018-02-19T12:43:03.164Z,4.10
2018-02-19T12:44:09.509Z,4.10
2018-02-19T12:45:15.883Z,4.10
2018-02-19T12:46:23.207Z,4.11
2018-02-19T12:47:28.538Z,4.10
2018-02-19T12:48:34.900Z,4.10
2018-02-19T12:49:40.745Z,4.10
2018-02-19T12:50:47.591Z,4.10
2018-02-19T12:51:53.944Z,4.11
2018-02-19T12:53:00.287Z,4.10
2018-02-19T12:54:06.601Z,4.10
2018-02-19T12:55:13.984Z,4.10
2018-02-19T12:56:19.312Z,4.10
2018-02-19T12:57:25.644Z,4.10
2018-02-19T12:58:32.001Z,4.10
2018-02-19T12:59:38.550Z,4.10
2018-02-19T13:00:44.712Z,4.11
2018-02-19T13:01:51.044Z,4.10
2018-02-19T13:02:58.684Z,4.10
2018-02-19T13:04:03.723Z,4.10
2018-02-19T13:05:10.092Z,4.11
2018-02-19T13:06:16.390Z,4.11
2018-02-19T13:07:22.760Z,4.11
2018-02-19T13:08:29.179Z,4.11
2018-02-19T13:09:35.384Z,4.11
2018-02-19T13:10:41.750Z,4.11
2018-02-19T13:11:48.557Z,4.10
2018-02-19T13:12:54.382Z,4.11
2018-02-19T13:14:00.215Z,4.11
2018-02-19T13:15:07.090Z,4.11
2018-02-19T13:16:14.360Z,4.11
2018-02-19T13:17:19.664Z,4.11
2018-02-19T13:18:25.990Z,4.11
2018-02-19T13:19:31.822Z,4.11
2018-02-19T13:20:38.691Z,4.11
2018-02-19T13:21:44.985Z,4.11
2018-02-19T13:22:51.313Z,4.11
2018-02-19T13:23:57.161Z,4.11
2018-02-19T13:25:03.982Z,4.11
2018-02-19T13:26:10.348Z,4.11
2018-02-19T13:27:16.665Z,4.11
2018-02-19T13:28:22.522Z,4.11
2018-02-19T13:29:29.376Z,4.11
2018-02-19T13:30:35.725Z,4.11
2018-02-19T13:31:41.545Z,4.11
2018-02-19T13:32:48.374Z,4.11
2018-02-19T13:33:55.218Z,4.11
2018-02-19T13:35:01.163Z,4.11
2018-02-19T13:36:06.906Z,4.11
2018-02-19T13:37:13.707Z,4.11
2018-02-19T13:38:20.033Z,4.11
2018-02-19T13:39:26.330Z,4.11
2018-02-19T13:40:32.168Z,4.11
2018-02-19T13:41:38.947Z,4.11
2018-02-19T13:42:45.248Z,4.11
2018-02-19T13:43:51.563Z,4.11
2018-02-19T13:44:57.849Z,4.11
2018-02-19T13:46:03.672Z,4.12
2018-02-19T13:47:09.954Z,4.11
2018-02-19T13:48:17.254Z,4.11
2018-02-19T13:49:23.046Z,4.12
2018-02-19T13:50:29.340Z,4.11
2018-02-19T13:51:35.601Z,4.12
2018-02-19T13:52:41.863Z,4.11
2018-02-19T13:53:47.655Z,4.12
2018-02-19T13:54:54.431Z,4.12
2018-02-19T13:56:00.773Z,4.12
2018-02-19T13:57:06.490Z,4.12
2018-02-19T13:58:12.747Z,4.12
2018-02-19T13:59:19.510Z,4.12
2018-02-19T14:00:25.800Z,4.12
2018-02-19T14:01:31.554Z,4.12
2018-02-19T14:02:38.344Z,4.12
2018-02-19T14:03:44.583Z,4.12
2018-02-19T14:04:50.852Z,4.12
2018-02-19T14:05:57.176Z,4.12
2018-02-19T14:07:03.359Z,4.12
2018-02-19T14:08:09.633Z,4.12
2018-02-19T14:09:15.877Z,4.12
2018-02-19T14:10:21.662Z,4.12
2018-02-19T14:11:27.892Z,4.12
2018-02-19T14:12:35.636Z,4.12
2018-02-19T14:13:40.891Z,4.12
2018-02-19T14:14:47.159Z,4.12
2018-02-19T14:15:52.905Z,4.12
2018-02-19T14:16:59.637Z,4.12
2018-02-19T14:18:05.400Z,4.12
2018-02-19T14:19:11.630Z,4.12
2018-02-19T14:20:17.854Z,4.12
2018-02-19T14:21:24.106Z,4.12
2018-02-19T14:22:30.321Z,4.12
2018-02-19T14:23:36.551Z,4.12
2018-02-19T14:24:42.773Z,4.12
2018-02-19T14:25:49.026Z,4.12
2018-02-19T14:26:55.720Z,4.12
2018-02-19T14:28:01.960Z,4.12
2018-02-19T14:29:07.681Z,4.12
2018-02-19T14:30:13.919Z,4.12
2018-02-19T14:31:20.655Z,4.12
2018-02-19T14:32:26.853Z,4.12
2018-02-19T14:33:33.161Z,4.12
2018-02-19T14:34:38.817Z,4.12
2018-02-19T14:35:46.534Z,4.12
2018-02-19T14:36:51.249Z,4.12
2018-02-19T14:37:57.958Z,4.12
2018-02-19T14:39:03.687Z,4.12
2018-02-19T14:40:10.398Z,4.12
2018-02-19T14:41:16.146Z,4.12
2018-02-19T14:42:22.860Z,4.12
2018-02-19T14:43:29.157Z,4.12
2018-02-19T14:44:35.294Z,4.12
2018-02-19T14:45:41.533Z,4.12
2018-02-19T14:46:47.742Z,4.12
2018-02-19T14:47:53.944Z,4.12
2018-02-19T14:49:00.176Z,4.12
2018-02-19T14:50:05.880Z,4.12
2018-02-19T14:51:12.627Z,4.12
2018-02-19T14:52:19.814Z,4.12
2018-02-19T14:53:24.542Z,4.12
2018-02-19T14:54:31.260Z,4.12
2018-02-19T14:55:37.494Z,4.12
2018-02-19T14:56:43.680Z,4.12
2018-02-19T14:57:49.899Z,4.12
2018-02-19T14:58:56.624Z,4.12
2018-02-19T15:00:02.327Z,4.12
2018-02-19T15:01:08.577Z,4.12
2018-02-19T15:02:14.265Z,4.12
2018-02-19T15:03:20.989Z,4.12
2018-02-19T15:04:27.188Z,4.12
2018-02-19T15:05:33.410Z,4.12
2018-02-19T15:06:40.609Z,4.12
2018-02-19T15:07:45.327Z,4.12
2018-02-19T15:08:51.530Z,4.12
2018-02-19T15:09:57.738Z,4.12
2018-02-19T15:11:04.469Z,4.12
2018-02-19T15:12:10.655Z,4.13
2018-02-19T15:13:16.856Z,4.12